createdAt,value
2018-07-30T00:06:07.573Z,83.28
2018-07-30T00:21:11.522Z,84.40
2018-07-30T00:36:15.332Z,85.14
2018-07-30T00:51:19.155Z,84.68
2018-07-30T01:06:22.964Z,85.01
2018-07-30T01:21:26.761Z,85.16
2018-07-30T01:36:30.566Z,86.55
2018-07-30T01:51:34.386Z,86.58
2018-07-30T02:06:38.247Z,85.41
2018-07-30T02:21:42.068Z,86.29
2018-07-30T02:36:45.955Z,86.26
2018-07-30T02:51:49.840Z,86.86
2018-07-30T03:06:53.689Z,87.42
2018-07-30T03:21:57.635Z,86.78
2018-07-30T03:37:01.874Z,87.22
2018-07-30T03:52:05.677Z,86.88
2018-07-30T04:07:09.460Z,85.94
2018-07-30T04:22:13.416Z,86.71
2018-07-30T04:37:17.446Z,86.56
2018-07-30T04:52:21.255Z,85.07
2018-07-30T05:07:25.199Z,84.19
2018-07-30T05:22:28.995Z,83.70
2018-07-30T05:37:32.983Z,81.64
2018-07-30T05:52:36.865Z,72.93
2018-07-30T06:07:40.682Z,65.29
2018-07-30T06:22:44.534Z,64.56
2018-07-30T06:37:48.808Z,63.27
2018-07-30T06:52:52.794Z,59.39
2018-07-30T07:07:56.615Z,56.65
2018-07-30T07:23:00.626Z,64.58
2018-07-30T07:38:04.468Z,67.89
2018-07-30T07:53:08.306Z,68.93
2018-07-30T08:08:12.252Z,68.81
2018-07-30T08:23:16.094Z,67.26
2018-07-30T08:38:19.921Z,65.82
2018-07-30T08:53:23.758Z,56.27
2018-07-30T09:08:28.269Z,47.81
2018-07-30T09:23:32.571Z,49.67
2018-07-30T09:38:37.004Z,42.86
2018-07-30T09:53:41.281Z,39.37
2018-07-30T10:08:46.718Z,47.45
2018-07-30T10:23:50.909Z,43.13
2018-07-30T10:38:55.168Z,44.82
2018-07-30T10:53:59.250Z,58.87
2018-07-30T11:09:03.794Z,75.86
2018-07-30T11:24:07.884Z,75.61
2018-07-30T11:39:13.080Z,66.51
2018-07-30T11:54:16.944Z,73.09
2018-07-30T12:09:20.823Z,71.35
2018-07-30T12:24:24.643Z,67.84
2018-07-30T12:39:28.501Z,61.36
2018-07-30T12:54:32.434Z,59.15
2018-07-30T13:09:36.251Z,53.53
2018-07-30T13:24:40.112Z,48.65
2018-07-30T13:39:44.446Z,44.10
2018-07-30T13:54:48.830Z,50.30
2018-07-30T14:09:52.687Z,55.65
2018-07-30T14:24:56.511Z,62.17
2018-07-30T14:40:01.430Z,61.79
2018-07-30T14:55:05.501Z,63.69
2018-07-30T15:10:09.446Z,65.46
2018-07-30T15:25:13.352Z,65.69
2018-07-30T15:40:17.160Z,67.85
2018-07-30T15:55:20.969Z,71.17
2018-07-30T16:10:24.884Z,69.49
2018-07-30T16:25:28.901Z,72.53
2018-07-30T16:40:32.986Z,77.89
2018-07-30T16:55:36.955Z,78.60
2018-07-30T17:10:40.898Z,79.46
2018-07-30T17:25:44.805Z,83.89
2018-07-30T17:40:48.726Z,86.06
2018-07-30T17:55:52.645Z,88.90
2018-07-30T18:10:56.496Z,90.04
2018-07-30T18:26:00.465Z,90.16
2018-07-30T18:41:04.398Z,91.09
2018-07-30T18:56:08.305Z,93.17
2018-07-30T19:11:12.233Z,92.42
2018-07-30T19:26:16.160Z,94.92
2018-07-30T19:41:20.023Z,96.51
2018-07-30T19:56:23.919Z,97.47
2018-07-30T20:11:27.864Z,98.60
2018-07-30T20:26:31.704Z,97.95
2018-07-30T20:41:35.944Z,99.76
2018-07-30T20:56:40.058Z,98.60
2018-07-30T21:11:44.000Z,97.04
2018-07-30T21:26:47.829Z,98.71
2018-07-30T21:41:51.673Z,97.10
2018-07-30T21:56:55.577Z,96.73
2018-07-30T22:11:59.473Z,97.80
2018-07-30T22:27:03.756Z,92.90
2018-07-30T22:42:07.737Z,90.21
2018-07-30T22:57:11.691Z,92.71
2018-07-30T23:12:15.508Z,95.35
2018-07-30T23:27:19.944Z,96.79
2018-07-30T23:42:23.732Z,94.66
2018-07-30T23:57:28.150Z,96.72
